Sorters, Texas
Current Conditions -  °F | °C
As of 9:16 AM on Sunday 21 Dec 2014 (Local Time) from KIAH Reporting Station
Broken Clouds Broken Clouds  
Wind Chill: 52°   Ceiling: 9000
Heat Index: 52°   Visibility: 10mi
Dew Point: 46°   Wind: 6mph
Humidity: 82%   Direction: 60°ENE
Pressure: 30.12"   Gusts: NA
Location:  30.1192°N, 95.2824°W
Report Text: KIAH 211516Z 06005KT 10SM SCT025 BKN090 11/08 A3012 RMK AO2
Loading
Personal Weather Stations






























Interactive Weather Map New forecast layout! Learn more

10-Day Weather Forecast

Advertisements
Track Severe Weather on mobile